sensor_id;sensor_type;location;lat;lon;timestamp;P1;durP1;ratioP1;P2;durP2;ratioP2
18100;SDS011;9177;49.156;8.142;2024-01-10T00:01:05;276.13;;;258.00;;
18100;SDS011;9177;49.156;8.142;2024-01-10T00:03:32;261.53;;;244.40;;
18100;SDS011;9177;49.156;8.142;2024-01-10T00:05:58;272.27;;;254.10;;
18100;SDS011;9177;49.156;8.142;2024-01-10T00:08:25;254.43;;;237.67;;
18100;SDS011;9177;49.156;8.142;2024-01-10T00:10:52;254.03;;;237.20;;
18100;SDS011;9177;49.156;8.142;2024-01-10T00:13:21;245.37;;;228.97;;
18100;SDS011;9177;49.156;8.142;2024-01-10T00:15:48;246.73;;;230.13;;
18100;SDS011;9177;49.156;8.142;2024-01-10T00:18:15;248.77;;;232.37;;
18100;SDS011;9177;49.156;8.142;2024-01-10T00:20:42;231.90;;;216.57;;
18100;SDS011;9177;49.156;8.142;2024-01-10T00:23:09;233.97;;;218.40;;
18100;SDS011;9177;49.156;8.142;2024-01-10T00:25:36;219.37;;;205.03;;
18100;SDS011;9177;49.156;8.142;2024-01-10T00:28:04;214.70;;;200.37;;
18100;SDS011;9177;49.156;8.142;2024-01-10T00:30:32;212.83;;;198.73;;
18100;SDS011;9177;49.156;8.142;2024-01-10T00:32:59;212.40;;;198.10;;
18100;SDS011;9177;49.156;8.142;2024-01-10T00:35:25;209.93;;;195.87;;
18100;SDS011;9177;49.156;8.142;2024-01-10T00:37:52;197.50;;;184.33;;
18100;SDS011;9177;49.156;8.142;2024-01-10T00:40:19;195.43;;;182.23;;
18100;SDS011;9177;49.156;8.142;2024-01-10T00:42:47;193.80;;;180.63;;
18100;SDS011;9177;49.156;8.142;2024-01-10T00:45:14;189.87;;;176.90;;
18100;SDS011;9177;49.156;8.142;2024-01-10T00:47:46;179.00;;;166.63;;
18100;SDS011;9177;49.156;8.142;2024-01-10T00:50:13;177.57;;;165.57;;
18100;SDS011;9177;49.156;8.142;2024-01-10T00:52:40;178.87;;;166.47;;
18100;SDS011;9177;49.156;8.142;2024-01-10T00:55:07;170.77;;;159.00;;
18100;SDS011;9177;49.156;8.142;2024-01-10T00:57:34;168.07;;;156.57;;
18100;SDS011;9177;49.156;8.142;2024-01-10T01:00:03;163.63;;;152.43;;
18100;SDS011;9177;49.156;8.142;2024-01-10T01:02:31;154.97;;;144.33;;
18100;SDS011;9177;49.156;8.142;2024-01-10T01:04:59;154.27;;;143.57;;
18100;SDS011;9177;49.156;8.142;2024-01-10T01:07:26;156.33;;;145.63;;
18100;SDS011;9177;49.156;8.142;2024-01-10T01:09:53;149.47;;;139.17;;
18100;SDS011;9177;49.156;8.142;2024-01-10T01:12:19;146.17;;;136.07;;
18100;SDS011;9177;49.156;8.142;2024-01-10T01:14:46;142.70;;;132.90;;
18100;SDS011;9177;49.156;8.142;2024-01-10T01:17:13;149.10;;;138.77;;
18100;SDS011;9177;49.156;8.142;2024-01-10T01:19:40;133.77;;;124.67;;
18100;SDS011;9177;49.156;8.142;2024-01-10T01:22:08;137.07;;;127.57;;
18100;SDS011;9177;49.156;8.142;2024-01-10T01:24:35;137.70;;;128.20;;
18100;SDS011;9177;49.156;8.142;2024-01-10T01:27:02;132.77;;;123.80;;
18100;SDS011;9177;49.156;8.142;2024-01-10T01:29:29;128.23;;;119.53;;
18100;SDS011;9177;49.156;8.142;2024-01-10T01:31:56;120.43;;;112.07;;
18100;SDS011;9177;49.156;8.142;2024-01-10T01:34:23;124.03;;;115.50;;
18100;SDS011;9177;49.156;8.142;2024-01-10T01:36:50;123.27;;;115.03;;
18100;SDS011;9177;49.156;8.142;2024-01-10T01:39:18;121.30;;;112.93;;
18100;SDS011;9177;49.156;8.142;2024-01-10T01:41:45;119.93;;;111.73;;
18100;SDS011;9177;49.156;8.142;2024-01-10T01:44:15;125.07;;;116.33;;
18100;SDS011;9177;49.156;8.142;2024-01-10T01:46:43;116.10;;;108.30;;
18100;SDS011;9177;49.156;8.142;2024-01-10T01:49:12;109.77;;;102.10;;
18100;SDS011;9177;49.156;8.142;2024-01-10T01:51:38;106.70;;;99.40;;
18100;SDS011;9177;49.156;8.142;2024-01-10T01:54:07;105.47;;;98.07;;
18100;SDS011;9177;49.156;8.142;2024-01-10T01:56:36;103.53;;;96.53;;
18100;SDS011;9177;49.156;8.142;2024-01-10T01:59:04;103.43;;;96.43;;
18100;SDS011;9177;49.156;8.142;2024-01-10T02:01:31;103.00;;;95.87;;
18100;SDS011;9177;49.156;8.142;2024-01-10T02:03:59;98.70;;;91.83;;
18100;SDS011;9177;49.156;8.142;2024-01-10T02:06:28;94.10;;;87.60;;
18100;SDS011;9177;49.156;8.142;2024-01-10T02:08:55;92.23;;;85.70;;
18100;SDS011;9177;49.156;8.142;2024-01-10T02:11:23;97.03;;;90.43;;
18100;SDS011;9177;49.156;8.142;2024-01-10T02:13:52;88.67;;;82.43;;
18100;SDS011;9177;49.156;8.142;2024-01-10T02:16:20;91.60;;;85.30;;
18100;SDS011;9177;49.156;8.142;2024-01-10T02:18:48;84.77;;;78.80;;
18100;SDS011;9177;49.156;8.142;2024-01-10T02:21:20;85.23;;;79.23;;
18100;SDS011;9177;49.156;8.142;2024-01-10T02:23:47;79.87;;;74.33;;
18100;SDS011;9177;49.156;8.142;2024-01-10T02:26:16;82.00;;;76.23;;
18100;SDS011;9177;49.156;8.142;2024-01-10T02:28:43;76.30;;;70.80;;
18100;SDS011;9177;49.156;8.142;2024-01-10T02:31:10;75.57;;;70.27;;
18100;SDS011;9177;49.156;8.142;2024-01-10T02:33:37;74.00;;;68.60;;
18100;SDS011;9177;49.156;8.142;2024-01-10T02:36:04;71.80;;;66.60;;
18100;SDS011;9177;49.156;8.142;2024-01-10T02:38:31;76.23;;;70.83;;
18100;SDS011;9177;49.156;8.142;2024-01-10T02:40:58;71.17;;;65.97;;
18100;SDS011;9177;49.156;8.142;2024-01-10T02:43:28;69.37;;;64.43;;
18100;SDS011;9177;49.156;8.142;2024-01-10T02:45:55;68.97;;;64.07;;
18100;SDS011;9177;49.156;8.142;2024-01-10T02:48:22;67.33;;;62.43;;
18100;SDS011;9177;49.156;8.142;2024-01-10T02:50:49;71.73;;;66.73;;
18100;SDS011;9177;49.156;8.142;2024-01-10T02:53:16;64.27;;;59.70;;
18100;SDS011;9177;49.156;8.142;2024-01-10T02:55:42;65.83;;;61.10;;
18100;SDS011;9177;49.156;8.142;2024-01-10T02:58:11;61.90;;;57.53;;
18100;SDS011;9177;49.156;8.142;2024-01-10T03:00:39;65.37;;;60.63;;
18100;SDS011;9177;49.156;8.142;2024-01-10T03:03:06;57.43;;;53.23;;
18100;SDS011;9177;49.156;8.142;2024-01-10T03:05:33;56.00;;;51.90;;
18100;SDS011;9177;49.156;8.142;2024-01-10T03:08:00;58.27;;;53.87;;
18100;SDS011;9177;49.156;8.142;2024-01-10T03:10:27;56.67;;;52.60;;
18100;SDS011;9177;49.156;8.142;2024-01-10T03:12:54;53.97;;;50.07;;
18100;SDS011;9177;49.156;8.142;2024-01-10T03:15:21;53.57;;;49.63;;
18100;SDS011;9177;49.156;8.142;2024-01-10T03:17:49;52.60;;;48.80;;
18100;SDS011;9177;49.156;8.142;2024-01-10T03:20:16;52.37;;;48.57;;
18100;SDS011;9177;49.156;8.142;2024-01-10T03:22:43;51.33;;;47.63;;
18100;SDS011;9177;49.156;8.142;2024-01-10T03:25:10;51.20;;;47.50;;
18100;SDS011;9177;49.156;8.142;2024-01-10T03:27:37;50.10;;;46.60;;
18100;SDS011;9177;49.156;8.142;2024-01-10T03:30:04;49.33;;;45.73;;
18100;SDS011;9177;49.156;8.142;2024-01-10T03:32:32;47.13;;;43.63;;
18100;SDS011;9177;49.156;8.142;2024-01-10T03:35:00;46.30;;;43.00;;
18100;SDS011;9177;49.156;8.142;2024-01-10T03:37:28;46.67;;;42.97;;
18100;SDS011;9177;49.156;8.142;2024-01-10T03:39:54;45.87;;;42.47;;
18100;SDS011;9177;49.156;8.142;2024-01-10T03:42:21;44.40;;;41.20;;
18100;SDS011;9177;49.156;8.142;2024-01-10T03:44:48;43.60;;;40.33;;
18100;SDS011;9177;49.156;8.142;2024-01-10T03:47:15;42.07;;;38.97;;
18100;SDS011;9177;49.156;8.142;2024-01-10T03:49:42;43.33;;;40.13;;
18100;SDS011;9177;49.156;8.142;2024-01-10T03:52:10;41.17;;;38.17;;
18100;SDS011;9177;49.156;8.142;2024-01-10T03:54:37;41.83;;;38.63;;
18100;SDS011;9177;49.156;8.142;2024-01-10T03:57:05;40.27;;;37.27;;
18100;SDS011;9177;49.156;8.142;2024-01-10T03:59:33;39.67;;;36.87;;
18100;SDS011;9177;49.156;8.142;2024-01-10T04:01:59;40.73;;;37.73;;
18100;SDS011;9177;49.156;8.142;2024-01-10T04:04:28;38.43;;;35.53;;
18100;SDS011;9177;49.156;8.142;2024-01-10T04:06:55;37.33;;;34.63;;
18100;SDS011;9177;49.156;8.142;2024-01-10T04:09:23;37.60;;;34.70;;
18100;SDS011;9177;49.156;8.142;2024-01-10T04:11:50;37.07;;;34.27;;
18100;SDS011;9177;49.156;8.142;2024-01-10T04:14:17;34.30;;;31.80;;
18100;SDS011;9177;49.156;8.142;2024-01-10T04:16:44;35.30;;;32.63;;
18100;SDS011;9177;49.156;8.142;2024-01-10T04:19:11;34.10;;;31.50;;
18100;SDS011;9177;49.156;8.142;2024-01-10T04:21:37;34.43;;;31.83;;
18100;SDS011;9177;49.156;8.142;2024-01-10T04:24:05;32.53;;;30.13;;
18100;SDS011;9177;49.156;8.142;2024-01-10T04:26:33;32.37;;;29.97;;
18100;SDS011;9177;49.156;8.142;2024-01-10T04:28:59;31.60;;;29.23;;
18100;SDS011;9177;49.156;8.142;2024-01-10T04:31:29;32.13;;;29.73;;
18100;SDS011;9177;49.156;8.142;2024-01-10T04:33:56;30.80;;;28.60;;
18100;SDS011;9177;49.156;8.142;2024-01-10T04:36:23;30.73;;;28.53;;
18100;SDS011;9177;49.156;8.142;2024-01-10T04:38:50;32.10;;;29.60;;
18100;SDS011;9177;49.156;8.142;2024-01-10T04:41:16;32.47;;;29.97;;
18100;SDS011;9177;49.156;8.142;2024-01-10T04:43:45;29.83;;;27.63;;
18100;SDS011;9177;49.156;8.142;2024-01-10T04:46:12;30.70;;;28.40;;
18100;SDS011;9177;49.156;8.142;2024-01-10T04:48:39;27.73;;;25.63;;
18100;SDS011;9177;49.156;8.142;2024-01-10T04:51:05;29.87;;;27.57;;
18100;SDS011;9177;49.156;8.142;2024-01-10T04:53:33;27.37;;;25.23;;
18100;SDS011;9177;49.156;8.142;2024-01-10T04:56:00;26.57;;;24.57;;
18100;SDS011;9177;49.156;8.142;2024-01-10T04:58:27;28.13;;;26.03;;
18100;SDS011;9177;49.156;8.142;2024-01-10T05:00:56;26.57;;;24.57;;
18100;SDS011;9177;49.156;8.142;2024-01-10T05:03:22;25.33;;;23.43;;
18100;SDS011;9177;49.156;8.142;2024-01-10T05:05:51;26.53;;;24.53;;
18100;SDS011;9177;49.156;8.142;2024-01-10T05:08:18;26.13;;;24.13;;
18100;SDS011;9177;49.156;8.142;2024-01-10T05:10:45;23.60;;;21.70;;
18100;SDS011;9177;49.156;8.142;2024-01-10T05:13:12;24.13;;;22.40;;
18100;SDS011;9177;49.156;8.142;2024-01-10T05:15:39;23.83;;;21.93;;
18100;SDS011;9177;49.156;8.142;2024-01-10T05:18:07;23.43;;;21.63;;
18100;SDS011;9177;49.156;8.142;2024-01-10T05:20:35;23.63;;;21.83;;
18100;SDS011;9177;49.156;8.142;2024-01-10T05:23:02;23.37;;;21.57;;
18100;SDS011;9177;49.156;8.142;2024-01-10T05:25:29;23.17;;;21.27;;
18100;SDS011;9177;49.156;8.142;2024-01-10T05:27:56;22.63;;;20.93;;
18100;SDS011;9177;49.156;8.142;2024-01-10T05:30:22;21.80;;;20.10;;
18100;SDS011;9177;49.156;8.142;2024-01-10T05:32:49;22.37;;;20.47;;
18100;SDS011;9177;49.156;8.142;2024-01-10T05:35:18;20.90;;;19.30;;
18100;SDS011;9177;49.156;8.142;2024-01-10T05:37:45;21.53;;;19.80;;
18100;SDS011;9177;49.156;8.142;2024-01-10T05:40:12;20.10;;;18.50;;
18100;SDS011;9177;49.156;8.142;2024-01-10T05:42:38;19.40;;;17.90;;
18100;SDS011;9177;49.156;8.142;2024-01-10T05:47:51;19.07;;;17.57;;
18100;SDS011;9177;49.156;8.142;2024-01-10T05:50:20;19.93;;;18.23;;
18100;SDS011;9177;49.156;8.142;2024-01-10T05:52:47;18.40;;;17.00;;
18100;SDS011;9177;49.156;8.142;2024-01-10T05:55:14;19.10;;;17.60;;
18100;SDS011;9177;49.156;8.142;2024-01-10T05:57:40;18.87;;;17.37;;
18100;SDS011;9177;49.156;8.142;2024-01-10T06:00:08;18.90;;;17.40;;
18100;SDS011;9177;49.156;8.142;2024-01-10T06:02:36;18.47;;;17.07;;
18100;SDS011;9177;49.156;8.142;2024-01-10T06:05:04;18.60;;;17.00;;
18100;SDS011;9177;49.156;8.142;2024-01-10T06:07:33;17.80;;;16.30;;
18100;SDS011;9177;49.156;8.142;2024-01-10T06:10:00;16.83;;;15.53;;
18100;SDS011;9177;49.156;8.142;2024-01-10T06:12:27;18.63;;;17.13;;
18100;SDS011;9177;49.156;8.142;2024-01-10T06:14:54;17.07;;;15.70;;
18100;SDS011;9177;49.156;8.142;2024-01-10T06:17:21;17.50;;;16.00;;
18100;SDS011;9177;49.156;8.142;2024-01-10T06:19:48;15.73;;;14.47;;
18100;SDS011;9177;49.156;8.142;2024-01-10T06:22:15;17.07;;;15.67;;
18100;SDS011;9177;49.156;8.142;2024-01-10T06:24:44;17.00;;;15.60;;
18100;SDS011;9177;49.156;8.142;2024-01-10T06:27:11;15.60;;;14.30;;
18100;SDS011;9177;49.156;8.142;2024-01-10T06:29:37;16.73;;;15.33;;
18100;SDS011;9177;49.156;8.142;2024-01-10T06:32:05;16.70;;;15.30;;
18100;SDS011;9177;49.156;8.142;2024-01-10T06:34:32;16.80;;;15.40;;
18100;SDS011;9177;49.156;8.142;2024-01-10T06:36:59;15.60;;;14.40;;
18100;SDS011;9177;49.156;8.142;2024-01-10T06:39:26;16.07;;;14.77;;
18100;SDS011;9177;49.156;8.142;2024-01-10T06:41:55;14.80;;;13.60;;
18100;SDS011;9177;49.156;8.142;2024-01-10T06:44:23;15.40;;;14.20;;
18100;SDS011;9177;49.156;8.142;2024-01-10T06:46:50;15.73;;;14.33;;
18100;SDS011;9177;49.156;8.142;2024-01-10T06:49:17;15.17;;;13.87;;
18100;SDS011;9177;49.156;8.142;2024-01-10T06:51:44;15.20;;;13.97;;
18100;SDS011;9177;49.156;8.142;2024-01-10T06:54:11;16.07;;;14.67;;
18100;SDS011;9177;49.156;8.142;2024-01-10T06:56:38;14.40;;;13.20;;
18100;SDS011;9177;49.156;8.142;2024-01-10T06:59:07;16.03;;;14.73;;
18100;SDS011;9177;49.156;8.142;2024-01-10T07:01:35;13.53;;;12.33;;
18100;SDS011;9177;49.156;8.142;2024-01-10T07:04:02;14.13;;;12.97;;
18100;SDS011;9177;49.156;8.142;2024-01-10T07:06:30;13.47;;;12.37;;
18100;SDS011;9177;49.156;8.142;2024-01-10T07:08:57;14.20;;;13.00;;
18100;SDS011;9177;49.156;8.142;2024-01-10T07:11:24;14.20;;;12.97;;
18100;SDS011;9177;49.156;8.142;2024-01-10T07:13:53;13.93;;;12.83;;
18100;SDS011;9177;49.156;8.142;2024-01-10T07:16:21;14.30;;;13.10;;
18100;SDS011;9177;49.156;8.142;2024-01-10T07:18:48;13.77;;;12.57;;
18100;SDS011;9177;49.156;8.142;2024-01-10T07:21:16;13.50;;;12.30;;
18100;SDS011;9177;49.156;8.142;2024-01-10T07:23:43;13.37;;;12.27;;
18100;SDS011;9177;49.156;8.142;2024-01-10T07:26:12;13.00;;;11.90;;
18100;SDS011;9177;49.156;8.142;2024-01-10T07:28:41;12.77;;;11.67;;
18100;SDS011;9177;49.156;8.142;2024-01-10T07:31:08;13.33;;;12.23;;
18100;SDS011;9177;49.156;8.142;2024-01-10T07:33:39;13.30;;;12.00;;
18100;SDS011;9177;49.156;8.142;2024-01-10T07:36:06;12.43;;;11.30;;
18100;SDS011;9177;49.156;8.142;2024-01-10T07:38:33;13.10;;;12.00;;
18100;SDS011;9177;49.156;8.142;2024-01-10T07:41:00;12.07;;;10.97;;
18100;SDS011;9177;49.156;8.142;2024-01-10T07:43:27;12.67;;;11.47;;
18100;SDS011;9177;49.156;8.142;2024-01-10T07:45:54;12.10;;;11.10;;
18100;SDS011;9177;49.156;8.142;2024-01-10T07:48:21;12.67;;;11.50;;
18100;SDS011;9177;49.156;8.142;2024-01-10T07:50:49;12.00;;;10.97;;
18100;SDS011;9177;49.156;8.142;2024-01-10T07:53:16;12.33;;;11.23;;
18100;SDS011;9177;49.156;8.142;2024-01-10T07:55:43;12.17;;;11.07;;
18100;SDS011;9177;49.156;8.142;2024-01-10T07:58:10;13.90;;;10.73;;
18100;SDS011;9177;49.156;8.142;2024-01-10T08:00:37;12.00;;;10.80;;
18100;SDS011;9177;49.156;8.142;2024-01-10T08:03:04;12.30;;;11.20;;
18100;SDS011;9177;49.156;8.142;2024-01-10T08:05:31;11.73;;;10.63;;
18100;SDS011;9177;49.156;8.142;2024-01-10T08:08:00;12.13;;;11.00;;
18100;SDS011;9177;49.156;8.142;2024-01-10T08:10:28;11.43;;;10.43;;
18100;SDS011;9177;49.156;8.142;2024-01-10T08:12:55;12.67;;;11.20;;
18100;SDS011;9177;49.156;8.142;2024-01-10T08:15:22;11.97;;;10.83;;
18100;SDS011;9177;49.156;8.142;2024-01-10T08:17:49;11.97;;;10.87;;
18100;SDS011;9177;49.156;8.142;2024-01-10T08:20:16;11.87;;;10.67;;
18100;SDS011;9177;49.156;8.142;2024-01-10T08:22:46;11.93;;;10.50;;
18100;SDS011;9177;49.156;8.142;2024-01-10T08:25:14;12.07;;;10.80;;
18100;SDS011;9177;49.156;8.142;2024-01-10T08:27:43;11.90;;;10.80;;
18100;SDS011;9177;49.156;8.142;2024-01-10T08:30:11;11.47;;;10.27;;
18100;SDS011;9177;49.156;8.142;2024-01-10T08:32:38;10.97;;;9.97;;
18100;SDS011;9177;49.156;8.142;2024-01-10T08:35:05;11.53;;;10.00;;
18100;SDS011;9177;49.156;8.142;2024-01-10T08:37:34;10.93;;;9.83;;
18100;SDS011;9177;49.156;8.142;2024-01-10T08:40:01;11.77;;;10.63;;
18100;SDS011;9177;49.156;8.142;2024-01-10T08:42:34;11.87;;;9.63;;
18100;SDS011;9177;49.156;8.142;2024-01-10T08:45:01;10.17;;;9.27;;
18100;SDS011;9177;49.156;8.142;2024-01-10T08:47:29;10.80;;;9.53;;
18100;SDS011;9177;49.156;8.142;2024-01-10T08:49:57;10.20;;;9.20;;
18100;SDS011;9177;49.156;8.142;2024-01-10T08:52:24;10.97;;;9.83;;
18100;SDS011;9177;49.156;8.142;2024-01-10T08:54:51;9.73;;;8.80;;
18100;SDS011;9177;49.156;8.142;2024-01-10T08:57:18;11.47;;;10.37;;
18100;SDS011;9177;49.156;8.142;2024-01-10T08:59:46;10.80;;;9.70;;
18100;SDS011;9177;49.156;8.142;2024-01-10T09:02:13;10.27;;;9.33;;
18100;SDS011;9177;49.156;8.142;2024-01-10T09:04:40;11.30;;;9.90;;
18100;SDS011;9177;49.156;8.142;2024-01-10T09:07:07;9.37;;;8.47;;
18100;SDS011;9177;49.156;8.142;2024-01-10T09:09:35;10.97;;;9.63;;
18100;SDS011;9177;49.156;8.142;2024-01-10T09:12:02;9.87;;;8.97;;
18100;SDS011;9177;49.156;8.142;2024-01-10T09:14:30;9.67;;;8.77;;
18100;SDS011;9177;49.156;8.142;2024-01-10T09:16:58;10.10;;;9.10;;
18100;SDS011;9177;49.156;8.142;2024-01-10T09:19:28;10.13;;;9.07;;
18100;SDS011;9177;49.156;8.142;2024-01-10T09:21:55;10.20;;;9.20;;
18100;SDS011;9177;49.156;8.142;2024-01-10T09:24:23;10.30;;;9.27;;
18100;SDS011;9177;49.156;8.142;2024-01-10T09:26:51;11.43;;;9.90;;
18100;SDS011;9177;49.156;8.142;2024-01-10T09:29:18;10.20;;;8.80;;
18100;SDS011;9177;49.156;8.142;2024-01-10T09:31:46;11.73;;;9.03;;
18100;SDS011;9177;49.156;8.142;2024-01-10T09:34:14;11.13;;;9.20;;
18100;SDS011;9177;49.156;8.142;2024-01-10T09:36:41;10.60;;;9.27;;
18100;SDS011;9177;49.156;8.142;2024-01-10T09:39:08;9.67;;;8.67;;
18100;SDS011;9177;49.156;8.142;2024-01-10T09:41:40;9.57;;;8.57;;
18100;SDS011;9177;49.156;8.142;2024-01-10T09:44:11;9.73;;;8.73;;
18100;SDS011;9177;49.156;8.142;2024-01-10T09:46:39;10.07;;;8.67;;
18100;SDS011;9177;49.156;8.142;2024-01-10T09:49:09;11.30;;;9.30;;
18100;SDS011;9177;49.156;8.142;2024-01-10T09:51:38;9.73;;;8.73;;
18100;SDS011;9177;49.156;8.142;2024-01-10T09:54:05;10.77;;;9.20;;
18100;SDS011;9177;49.156;8.142;2024-01-10T09:56:32;11.00;;;9.90;;
18100;SDS011;9177;49.156;8.142;2024-01-10T09:59:01;10.50;;;8.60;;
18100;SDS011;9177;49.156;8.142;2024-01-10T10:01:30;9.50;;;8.60;;
18100;SDS011;9177;49.156;8.142;2024-01-10T10:03:57;10.20;;;9.10;;
18100;SDS011;9177;49.156;8.142;2024-01-10T10:06:25;9.93;;;8.93;;
18100;SDS011;9177;49.156;8.142;2024-01-10T10:08:53;9.80;;;8.37;;
18100;SDS011;9177;49.156;8.142;2024-01-10T10:11:20;12.43;;;8.53;;
18100;SDS011;9177;49.156;8.142;2024-01-10T10:13:48;10.80;;;8.57;;
18100;SDS011;9177;49.156;8.142;2024-01-10T10:16:22;11.30;;;8.63;;
18100;SDS011;9177;49.156;8.142;2024-01-10T10:18:51;10.33;;;8.90;;
18100;SDS011;9177;49.156;8.142;2024-01-10T10:21:23;10.53;;;8.50;;
18100;SDS011;9177;49.156;8.142;2024-01-10T10:23:59;9.63;;;8.63;;
18100;SDS011;9177;49.156;8.142;2024-01-10T10:26:29;11.73;;;8.93;;
18100;SDS011;9177;49.156;8.142;2024-01-10T10:28:58;10.10;;;8.97;;
18100;SDS011;9177;49.156;8.142;2024-01-10T10:31:26;8.97;;;8.07;;
18100;SDS011;9177;49.156;8.142;2024-01-10T10:33:54;11.00;;;8.57;;
18100;SDS011;9177;49.156;8.142;2024-01-10T10:36:21;11.47;;;8.30;;
18100;SDS011;9177;49.156;8.142;2024-01-10T10:38:48;9.57;;;8.53;;
18100;SDS011;9177;49.156;8.142;2024-01-10T10:41:16;10.03;;;8.20;;
18100;SDS011;9177;49.156;8.142;2024-01-10T10:43:45;9.97;;;8.93;;
18100;SDS011;9177;49.156;8.142;2024-01-10T10:46:13;9.27;;;8.37;;
18100;SDS011;9177;49.156;8.142;2024-01-10T10:48:41;8.30;;;7.57;;
18100;SDS011;9177;49.156;8.142;2024-01-10T10:51:10;10.83;;;8.53;;
18100;SDS011;9177;49.156;8.142;2024-01-10T10:53:39;8.73;;;7.70;;
18100;SDS011;9177;49.156;8.142;2024-01-10T10:56:07;9.93;;;8.27;;
18100;SDS011;9177;49.156;8.142;2024-01-10T10:58:38;9.87;;;7.70;;
18100;SDS011;9177;49.156;8.142;2024-01-10T11:01:07;8.93;;;8.03;;
18100;SDS011;9177;49.156;8.142;2024-01-10T11:03:36;9.40;;;8.17;;
18100;SDS011;9177;49.156;8.142;2024-01-10T11:06:05;9.00;;;7.60;;
18100;SDS011;9177;49.156;8.142;2024-01-10T11:08:33;10.60;;;8.20;;
18100;SDS011;9177;49.156;8.142;2024-01-10T11:11:03;8.67;;;7.77;;
18100;SDS011;9177;49.156;8.142;2024-01-10T11:13:48;10.40;;;7.80;;
18100;SDS011;9177;49.156;8.142;2024-01-10T11:16:35;13.30;;;7.73;;
18100;SDS011;9177;49.156;8.142;2024-01-10T11:19:30;11.03;;;8.37;;
18100;SDS011;9177;49.156;8.142;2024-01-10T11:22:25;12.33;;;9.13;;
18100;SDS011;9177;49.156;8.142;2024-01-10T11:25:06;30.13;;;16.90;;
18100;SDS011;9177;49.156;8.142;2024-01-10T11:27:34;17.77;;;14.30;;
18100;SDS011;9177;49.156;8.142;2024-01-10T11:30:05;35.60;;;22.27;;
18100;SDS011;9177;49.156;8.142;2024-01-10T11:32:33;32.13;;;22.67;;
18100;SDS011;9177;49.156;8.142;2024-01-10T11:35:03;25.80;;;20.30;;
18100;SDS011;9177;49.156;8.142;2024-01-10T11:37:42;25.33;;;17.77;;
18100;SDS011;9177;49.156;8.142;2024-01-10T11:40:10;18.30;;;14.93;;
18100;SDS011;9177;49.156;8.142;2024-01-10T11:42:41;22.73;;;14.70;;
18100;SDS011;9177;49.156;8.142;2024-01-10T11:45:11;18.75;;;14.05;;
18100;SDS011;9177;49.156;8.142;2024-01-10T11:47:59;21.40;;;14.63;;
18100;SDS011;9177;49.156;8.142;2024-01-10T11:50:26;19.63;;;14.30;;
18100;SDS011;9177;49.156;8.142;2024-01-10T11:52:56;18.53;;;15.60;;
18100;SDS011;9177;49.156;8.142;2024-01-10T11:58:14;21.73;;;19.13;;
18100;SDS011;9177;49.156;8.142;2024-01-10T12:00:45;22.50;;;20.10;;
18100;SDS011;9177;49.156;8.142;2024-01-10T12:03:14;21.00;;;18.30;;
18100;SDS011;9177;49.156;8.142;2024-01-10T12:05:42;21.47;;;19.20;;
18100;SDS011;9177;49.156;8.142;2024-01-10T12:08:09;21.75;;;17.75;;
18100;SDS011;9177;49.156;8.142;2024-01-10T12:10:37;21.20;;;18.65;;
18100;SDS011;9177;49.156;8.142;2024-01-10T12:13:04;19.00;;;17.03;;
18100;SDS011;9177;49.156;8.142;2024-01-10T12:15:31;19.40;;;17.17;;
18100;SDS011;9177;49.156;8.142;2024-01-10T12:18:00;18.20;;;16.30;;
18100;SDS011;9177;49.156;8.142;2024-01-10T12:20:27;18.65;;;16.67;;
18100;SDS011;9177;49.156;8.142;2024-01-10T12:22:54;16.73;;;14.93;;
18100;SDS011;9177;49.156;8.142;2024-01-10T12:25:22;18.48;;;15.82;;
18100;SDS011;9177;49.156;8.142;2024-01-10T12:27:49;16.37;;;14.50;;
18100;SDS011;9177;49.156;8.142;2024-01-10T12:30:18;17.97;;;14.43;;
18100;SDS011;9177;49.156;8.142;2024-01-10T12:32:50;18.00;;;14.97;;
18100;SDS011;9177;49.156;8.142;2024-01-10T12:35:21;16.03;;;14.33;;
18100;SDS011;9177;49.156;8.142;2024-01-10T12:37:53;17.27;;;14.25;;
18100;SDS011;9177;49.156;8.142;2024-01-10T12:40:21;16.02;;;14.38;;
18100;SDS011;9177;49.156;8.142;2024-01-10T12:42:48;14.97;;;13.37;;
18100;SDS011;9177;49.156;8.142;2024-01-10T12:45:21;14.60;;;13.10;;
18100;SDS011;9177;49.156;8.142;2024-01-10T12:47:48;14.10;;;12.70;;
18100;SDS011;9177;49.156;8.142;2024-01-10T12:50:16;15.18;;;13.57;;
18100;SDS011;9177;49.156;8.142;2024-01-10T12:52:44;19.67;;;13.32;;
18100;SDS011;9177;49.156;8.142;2024-01-10T12:55:14;14.05;;;12.55;;
18100;SDS011;9177;49.156;8.142;2024-01-10T12:57:42;18.25;;;12.60;;
18100;SDS011;9177;49.156;8.142;2024-01-10T13:00:10;16.37;;;12.70;;
18100;SDS011;9177;49.156;8.142;2024-01-10T13:02:39;16.27;;;12.53;;
18100;SDS011;9177;49.156;8.142;2024-01-10T13:05:07;14.47;;;12.97;;
18100;SDS011;9177;49.156;8.142;2024-01-10T13:07:35;15.70;;;14.20;;
18100;SDS011;9177;49.156;8.142;2024-01-10T13:10:04;15.65;;;14.05;;
18100;SDS011;9177;49.156;8.142;2024-01-10T13:12:31;17.53;;;14.83;;
18100;SDS011;9177;49.156;8.142;2024-01-10T13:14:59;15.97;;;14.23;;
18100;SDS011;9177;49.156;8.142;2024-01-10T13:17:26;15.30;;;13.50;;
18100;SDS011;9177;49.156;8.142;2024-01-10T13:19:59;16.20;;;14.55;;
18100;SDS011;9177;49.156;8.142;2024-01-10T13:22:29;17.73;;;15.88;;
18100;SDS011;9177;49.156;8.142;2024-01-10T13:24:58;20.98;;;18.77;;
18100;SDS011;9177;49.156;8.142;2024-01-10T13:27:32;26.67;;;23.92;;
18100;SDS011;9177;49.156;8.142;2024-01-10T13:29:59;26.35;;;23.90;;
18100;SDS011;9177;49.156;8.142;2024-01-10T13:32:27;24.15;;;21.88;;
18100;SDS011;9177;49.156;8.142;2024-01-10T13:34:54;25.42;;;23.00;;
18100;SDS011;9177;49.156;8.142;2024-01-10T13:37:22;25.23;;;22.90;;
18100;SDS011;9177;49.156;8.142;2024-01-10T13:39:54;25.80;;;23.13;;
18100;SDS011;9177;49.156;8.142;2024-01-10T13:42:22;25.03;;;21.33;;
18100;SDS011;9177;49.156;8.142;2024-01-10T13:44:51;22.00;;;19.88;;
18100;SDS011;9177;49.156;8.142;2024-01-10T13:47:18;20.37;;;18.33;;
18100;SDS011;9177;49.156;8.142;2024-01-10T13:49:46;19.58;;;17.48;;
18100;SDS011;9177;49.156;8.142;2024-01-10T13:52:14;19.40;;;17.27;;
18100;SDS011;9177;49.156;8.142;2024-01-10T13:54:43;18.17;;;16.27;;
18100;SDS011;9177;49.156;8.142;2024-01-10T13:57:11;24.75;;;16.95;;
18100;SDS011;9177;49.156;8.142;2024-01-10T13:59:38;18.53;;;16.53;;
18100;SDS011;9177;49.156;8.142;2024-01-10T14:02:07;17.45;;;15.73;;
18100;SDS011;9177;49.156;8.142;2024-01-10T14:04:35;18.85;;;16.95;;
18100;SDS011;9177;49.156;8.142;2024-01-10T14:07:03;20.48;;;16.33;;
18100;SDS011;9177;49.156;8.142;2024-01-10T14:09:31;16.45;;;14.85;;
18100;SDS011;9177;49.156;8.142;2024-01-10T14:11:58;17.90;;;15.23;;
18100;SDS011;9177;49.156;8.142;2024-01-10T14:14:26;18.27;;;15.65;;
18100;SDS011;9177;49.156;8.142;2024-01-10T14:16:53;17.92;;;16.02;;
18100;SDS011;9177;49.156;8.142;2024-01-10T14:19:21;20.95;;;15.23;;
18100;SDS011;9177;49.156;8.142;2024-01-10T14:21:49;16.63;;;14.90;;
18100;SDS011;9177;49.156;8.142;2024-01-10T14:24:16;17.10;;;15.40;;
18100;SDS011;9177;49.156;8.142;2024-01-10T14:26:43;16.77;;;15.02;;
18100;SDS011;9177;49.156;8.142;2024-01-10T14:29:11;16.83;;;15.13;;
18100;SDS011;9177;49.156;8.142;2024-01-10T14:31:40;15.53;;;13.93;;
18100;SDS011;9177;49.156;8.142;2024-01-10T14:34:09;16.03;;;14.30;;
18100;SDS011;9177;49.156;8.142;2024-01-10T14:36:38;16.90;;;15.05;;
18100;SDS011;9177;49.156;8.142;2024-01-10T14:39:05;16.00;;;14.40;;
18100;SDS011;9177;49.156;8.142;2024-01-10T14:41:33;16.20;;;14.50;;
18100;SDS011;9177;49.156;8.142;2024-01-10T14:44:01;16.38;;;14.50;;